Time;durP1;ratioP1;P1;durP2;ratioP2;P2;SDS_P1;SDS_P2;PMS_P1;PMS_P2;Temp;Humidity;BMP_temperature;BMP_pressure;BME280_temperature;BME280_humidity;BME280_pressure;Samples;Min_cycle;Max_cycle;Signal;HPM_P1;HPM_P2
2022/07/14 00:04:55;;;;;;;4.30;2.47;;;;;;;19.51;57.11;100055.34;10447317;28;20204;-77
2022/07/14 00:09:57;;;;;;;3.20;2.22;;;;;;;19.43;57.38;100054.31;10445120;28;20053;-76
2022/07/14 00:15:00;;;;;;;3.22;2.50;;;;;;;19.37;57.37;100039.06;10464647;28;20041;-79
2022/07/14 00:20:03;;;;;;;8.00;3.28;;;;;;;19.36;58.10;100039.41;10484844;28;20049;-77
2022/07/14 00:25:07;;;;;;;4.70;2.90;;;;;;;19.33;58.09;100029.00;10447699;28;20041;-79
2022/07/14 00:30:10;;;;;;;4.30;2.78;;;;;;;19.27;58.54;100032.03;10461455;28;20048;-77
2022/07/14 00:35:15;;;;;;;5.22;2.70;;;;;;;19.17;58.57;100026.97;10428388;28;20045;-77
2022/07/14 00:40:17;;;;;;;4.55;2.70;;;;;;;19.10;59.19;100000.94;10446227;28;20045;-78
2022/07/14 00:45:22;;;;;;;4.85;2.58;;;;;;;19.01;59.49;100008.59;10483324;28;20053;-79
2022/07/14 00:50:25;;;;;;;3.63;2.30;;;;;;;18.89;59.88;100003.88;10446697;28;20054;-78
2022/07/14 00:55:28;;;;;;;8.60;2.92;;;;;;;18.81;60.28;100002.88;10452837;28;20037;-75
2022/07/14 01:00:30;;;;;;;3.70;2.95;;;;;;;18.72;60.27;100004.16;10468539;28;20041;-78
2022/07/14 01:05:33;;;;;;;7.68;3.08;;;;;;;18.64;60.61;100003.16;10448927;28;20492;-77
2022/07/14 01:10:36;;;;;;;6.03;3.30;;;;;;;18.55;60.76;100006.03;10460188;28;20041;-77
2022/07/14 01:15:38;;;;;;;6.15;3.35;;;;;;;18.49;60.90;100001.88;10433727;28;20048;-73
2022/07/14 01:20:41;;;;;;;6.20;3.15;;;;;;;18.42;61.54;100000.84;10448985;28;20052;-73
2022/07/14 01:25:46;;;;;;;2.67;2.47;;;;;;;18.30;62.11;99994.16;10481848;28;20041;-73
2022/07/14 01:30:48;;;;;;;5.30;3.28;;;;;;;18.27;62.13;99996.81;10476681;28;20041;-73
2022/07/14 01:35:51;;;;;;;6.03;3.42;;;;;;;18.26;62.53;99995.19;10450605;28;20056;-73
2022/07/14 01:40:55;;;;;;;7.78;3.58;;;;;;;18.26;62.68;99981.31;10463600;28;20048;-73
2022/07/14 01:45:57;;;;;;;5.75;3.00;;;;;;;18.21;62.59;99978.75;10471299;28;20044;-74
2022/07/14 01:51:00;;;;;;;8.80;3.17;;;;;;;18.22;63.08;99967.31;10489119;28;20033;-73
2022/07/14 01:56:04;;;;;;;4.28;3.30;;;;;;;18.25;63.35;99961.06;10471096;28;20041;-73
2022/07/14 02:06:32;;;;;;;5.75;2.92;;;;;;;18.61;62.86;99959.38;10467376;28;20483;-73
2022/07/14 02:16:57;;;;;;;5.50;2.88;;;;;;;19.04;61.65;99955.06;10466754;28;20033;-73
2022/07/14 02:22:00;;;;;;;6.28;3.22;;;;;;;19.28;61.28;99960.53;10469689;28;20048;-74
2022/07/14 02:27:02;;;;;;;5.28;2.80;;;;;;;19.48;60.70;99951.13;10487614;28;20052;-73
2022/07/14 02:32:06;;;;;;;5.72;2.70;;;;;;;19.69;59.79;99945.31;10470188;28;20041;-74
2022/07/14 02:37:08;;;;;;;3.95;2.60;;;;;;;19.94;59.43;99951.50;10487758;28;20044;-74
2022/07/14 02:42:10;;;;;;;3.42;2.75;;;;;;;20.22;58.57;99937.44;10469420;28;20033;-74
2022/07/14 02:47:14;;;;;;;4.97;3.10;;;;;;;20.31;58.26;99940.03;10469484;28;20045;-73
2022/07/14 02:52:17;;;;;;;4.10;2.90;;;;;;;20.34;58.07;99945.69;10479496;28;20076;-74
2022/07/14 02:57:23;;;;;;;6.13;2.90;;;;;;;20.66;57.62;99928.91;10464793;28;20044;-74
2022/07/14 03:02:25;;;;;;;6.05;3.00;;;;;;;20.88;56.96;99930.13;10468287;28;20514;-74
2022/07/14 03:07:28;;;;;;;4.38;3.00;;;;;;;21.03;56.34;99920.88;10451927;28;20503;-73
2022/07/14 03:12:30;;;;;;;6.15;3.00;;;;;;;21.13;56.41;99914.69;10452283;28;20041;-74
2022/07/14 03:17:33;;;;;;;3.65;2.72;;;;;;;21.43;54.98;99916.84;10463458;28;20049;-74
2022/07/14 03:22:36;;;;;;;5.60;3.03;;;;;;;21.72;54.34;99918.16;10451213;28;20041;-74
2022/07/14 03:27:46;;;;;;;4.55;3.25;;;;;;;21.82;54.84;99909.94;10465238;28;20033;-73
2022/07/14 03:32:50;;;;;;;8.38;2.95;;;;;;;21.93;54.28;99896.16;10466981;28;20068;-74
2022/07/14 03:37:54;;;;;;;3.58;2.88;;;;;;;21.89;53.95;99901.69;10467275;28;20049;-73
2022/07/14 03:42:58;;;;;;;6.20;3.58;;;;;;;22.18;53.84;99893.75;10449233;28;20051;-73
2022/07/14 03:48:01;;;;;;;5.70;2.97;;;;;;;22.48;52.64;99897.34;10463684;28;20053;-74
2022/07/14 03:53:05;;;;;;;3.92;2.80;;;;;;;22.77;52.19;99883.75;10436127;28;20064;-74
2022/07/14 03:58:08;;;;;;;3.13;2.60;;;;;;;23.16;51.08;99896.19;10465848;28;20044;-74
2022/07/14 04:03:11;;;;;;;3.28;2.97;;;;;;;23.22;50.51;99893.03;10466078;28;20052;-72
2022/07/14 04:08:14;;;;;;;3.45;2.80;;;;;;;23.45;49.91;99882.47;10457254;28;20029;-73
2022/07/14 04:13:25;;;;;;;6.18;2.92;;;;;;;23.72;49.87;99883.91;10465301;28;20064;-73
2022/07/14 04:18:28;;;;;;;4.82;3.25;;;;;;;24.12;48.60;99872.97;10465703;28;20044;-73
2022/07/14 04:23:31;;;;;;;3.88;3.10;;;;;;;24.45;48.68;99863.56;10466026;28;20032;-73
2022/07/14 04:28:35;;;;;;;5.15;3.13;;;;;;;24.53;48.74;99873.63;10483338;28;20064;-73
2022/07/14 04:33:39;;;;;;;5.95;2.88;;;;;;;24.45;47.22;99869.97;10465466;28;20041;-73
2022/07/14 04:38:43;;;;;;;3.38;2.88;;;;;;;24.60;47.53;99860.44;10463003;28;20041;-74
2022/07/14 04:43:45;;;;;;;3.92;2.40;;;;;;;24.72;46.61;99867.69;10461256;28;20498;-74
2022/07/14 04:54:13;;;;;;;4.35;2.70;;;;;;;25.27;45.85;99847.00;10457993;28;20526;-73
2022/07/14 04:59:26;;;;;;;4.70;2.50;;;;;;;25.18;46.58;99848.19;10462729;28;20041;-73
2022/07/14 05:04:29;;;;;;;3.28;2.30;;;;;;;25.40;44.70;99846.19;10461353;28;20033;-73
2022/07/14 05:09:34;;;;;;;2.55;2.33;;;;;;;25.85;44.01;99838.16;10485735;28;20423;-73
2022/07/14 05:14:39;;;;;;;2.45;1.88;;;;;;;25.93;42.92;99836.97;10458404;28;20045;-73
2022/07/14 05:19:46;;;;;;;4.35;2.75;;;;;;;26.10;42.95;99838.91;10455690;28;20045;-74
2022/07/14 05:24:48;;;;;;;2.30;1.98;;;;;;;26.20;41.89;99831.66;10450961;28;20048;-73
2022/07/14 05:29:51;;;;;;;3.78;2.33;;;;;;;26.44;41.59;99832.81;10443301;28;20045;-73
2022/07/14 05:34:53;;;;;;;2.55;2.00;;;;;;;26.66;41.65;99825.06;10462289;28;20037;-73
2022/07/14 05:39:57;;;;;;;2.65;1.90;;;;;;;26.88;40.56;99825.72;10447945;28;20037;-73
2022/07/14 05:45:00;;;;;;;4.38;1.92;;;;;;;27.46;40.18;99821.34;10441813;28;20052;-73
2022/07/14 05:50:02;;;;;;;2.72;2.30;;;;;;;27.73;38.65;99813.84;10456413;28;20053;-73
2022/07/14 05:55:06;;;;;;;3.70;2.38;;;;;;;27.71;37.97;99821.94;10432460;28;20049;-73
2022/07/14 06:00:10;;;;;;;1.58;1.48;;;;;;;27.59;38.37;99805.50;10483079;28;20056;-73
2022/07/14 06:05:20;;;;;;;2.65;1.77;;;;;;;27.72;38.12;99809.44;10448112;28;20056;-73
2022/07/14 06:10:23;;;;;;;2.47;1.95;;;;;;;27.87;37.49;99799.63;10459480;28;20045;-73
2022/07/14 06:15:29;;;;;;;2.53;1.77;;;;;;;28.23;37.58;99800.00;10442027;28;20048;-73
2022/07/14 06:20:31;;;;;;;5.60;2.17;;;;;;;28.45;37.47;99797.72;10440560;28;20082;-73
2022/07/14 06:25:33;;;;;;;5.15;2.17;;;;;;;28.77;36.87;99802.94;10460305;28;20053;-73
2022/07/14 06:30:36;;;;;;;3.53;2.20;;;;;;;28.86;36.95;99801.63;10455004;28;20037;-73
2022/07/14 06:35:39;;;;;;;3.53;1.80;;;;;;;28.94;36.55;99791.84;10456619;28;20052;-73
2022/07/14 06:40:42;;;;;;;5.10;2.08;;;;;;;28.57;36.64;99798.41;10455161;28;20048;-73
2022/07/14 06:45:44;;;;;;;4.95;1.80;;;;;;;28.54;37.29;99794.41;10437909;28;20053;-73
2022/07/14 06:50:46;;;;;;;2.83;1.50;;;;;;;28.77;37.30;99785.22;10442978;28;20040;-73
2022/07/14 06:55:52;;;;;;;3.97;2.08;;;;;;;29.25;36.26;99784.91;10468325;28;20063;-73
2022/07/14 07:00:54;;;;;;;2.53;1.80;;;;;;;29.53;36.52;99782.84;10481348;28;20420;-73
2022/07/14 07:11:17;;;;;;;5.75;1.90;;;;;;;29.05;36.33;99769.91;10455673;28;20060;-73
2022/07/14 07:16:20;;;;;;;1.83;1.42;;;;;;;28.91;36.89;99778.59;10484445;28;20059;-73
2022/07/14 07:21:22;;;;;;;1.70;1.60;;;;;;;28.94;36.94;99784.19;10462943;28;20052;-73
2022/07/14 07:26:27;;;;;;;1.55;1.45;;;;;;;28.69;36.23;99778.06;10467728;28;20048;-73
2022/07/14 07:31:29;;;;;;;2.10;1.77;;;;;;;28.17;38.17;99781.16;10447156;28;20041;-73
2022/07/14 07:36:32;;;;;;;1.60;1.50;;;;;;;27.94;38.77;99756.44;10462345;28;20060;-74
2022/07/14 07:41:34;;;;;;;2.10;1.70;;;;;;;27.91;38.69;99769.34;10466820;28;20041;-74
2022/07/14 07:46:36;;;;;;;2.80;1.98;;;;;;;27.75;39.32;99763.47;10464914;28;20064;-74
2022/07/14 07:51:38;;;;;;;2.50;1.90;;;;;;;27.37;39.87;99759.81;10459901;28;20051;-73
2022/07/14 07:56:41;;;;;;;1.85;1.75;;;;;;;27.45;40.87;99740.84;10462299;28;20045;-73
